createdAt,value
2019-03-12T00:01:11.559Z,1.75
2019-03-12T00:03:42.498Z,1.90
2019-03-12T00:06:13.814Z,1.85
2019-03-12T00:08:44.980Z,1.55
2019-03-12T00:11:16.443Z,1.82
2019-03-12T00:13:47.716Z,1.92
2019-03-12T00:16:19.200Z,1.60
2019-03-12T00:18:51.583Z,1.85
2019-03-12T00:21:24.542Z,2.52
2019-03-12T00:23:58.372Z,1.85
2019-03-12T00:26:29.306Z,1.90
2019-03-12T00:29:01.301Z,2.05
2019-03-12T00:31:32.654Z,1.57
2019-03-12T00:34:04.277Z,1.72
2019-03-12T00:36:39.497Z,1.55
2019-03-12T00:39:12.147Z,1.92
2019-03-12T00:41:44.318Z,1.98
2019-03-12T00:44:15.501Z,1.80
2019-03-12T00:46:47.224Z,1.90
2019-03-12T00:49:19.021Z,2.05
2019-03-12T00:51:51.265Z,1.95
2019-03-12T00:54:23.261Z,1.65
2019-03-12T00:56:55.172Z,1.85
2019-03-12T00:59:26.561Z,1.52
2019-03-12T01:01:57.714Z,2.02
2019-03-12T01:04:29.504Z,2.35
2019-03-12T01:07:00.886Z,1.65
2019-03-12T01:09:33.293Z,1.70
2019-03-12T01:12:04.467Z,1.82
2019-03-12T01:14:36.259Z,2.65
2019-03-12T01:17:08.067Z,2.10
2019-03-12T01:19:38.436Z,1.77
2019-03-12T01:22:11.263Z,1.60
2019-03-12T01:24:45.024Z,1.85
2019-03-12T01:27:16.546Z,1.37
2019-03-12T01:29:49.155Z,1.90
2019-03-12T01:32:19.977Z,1.70
2019-03-12T01:34:51.770Z,2.15
2019-03-12T01:37:22.952Z,2.37
2019-03-12T01:39:53.876Z,1.95
2019-03-12T01:42:26.402Z,1.67
2019-03-12T01:44:59.632Z,2.47
2019-03-12T01:47:32.168Z,2.00
2019-03-12T01:50:04.005Z,2.27
2019-03-12T01:52:35.660Z,2.05
2019-03-12T01:55:09.515Z,2.00
2019-03-12T01:57:41.849Z,1.95
2019-03-12T02:00:19.326Z,2.17
2019-03-12T02:02:52.933Z,1.80
2019-03-12T02:05:25.137Z,2.25
2019-03-12T02:07:56.872Z,2.70
2019-03-12T02:24:14.828Z,2.60
2019-03-12T02:26:45.478Z,2.87
2019-03-12T02:29:16.822Z,2.75
2019-03-12T02:31:49.127Z,2.90
2019-03-12T02:34:20.835Z,2.40
2019-03-12T02:36:53.892Z,2.33
2019-03-12T02:39:27.588Z,2.40
2019-03-12T02:41:59.632Z,3.17
2019-03-12T02:44:30.703Z,2.45
2019-03-12T02:47:07.969Z,2.27
2019-03-12T02:49:39.367Z,2.72
2019-03-12T02:52:11.552Z,3.05
2019-03-12T02:54:42.812Z,2.70
2019-03-12T02:57:20.077Z,2.58
2019-03-12T02:59:52.710Z,2.87
2019-03-12T03:02:25.262Z,3.33
2019-03-12T03:04:57.588Z,4.12
2019-03-12T03:07:46.942Z,3.15
2019-03-12T03:10:20.955Z,3.22
2019-03-12T03:12:58.081Z,3.10
2019-03-12T03:15:34.038Z,2.80
2019-03-12T03:18:23.054Z,3.60
2019-03-12T03:20:55.545Z,3.35
2019-03-12T03:23:28.674Z,4.67
2019-03-12T03:26:16.307Z,3.70
2019-03-12T03:28:48.255Z,4.28
2019-03-12T03:34:40.973Z,5.40
2019-03-12T03:37:12.133Z,4.67
2019-03-12T03:40:01.949Z,5.90
2019-03-12T03:42:23.539Z,5.17
2019-03-12T03:44:54.517Z,6.60
2019-03-12T03:47:26.570Z,7.00
2019-03-12T03:50:05.719Z,7.05
2019-03-12T03:52:39.627Z,7.40
2019-03-12T03:55:35.161Z,8.78
2019-03-12T03:58:39.545Z,9.15
2019-03-12T04:04:36.830Z,8.73
2019-03-12T04:07:14.793Z,10.60
2019-03-12T04:09:48.433Z,9.93
2019-03-12T04:12:20.323Z,10.80
2019-03-12T04:14:56.368Z,11.60
2019-03-12T04:17:28.328Z,11.22
2019-03-12T04:20:04.679Z,12.23
2019-03-12T04:22:38.975Z,12.73
2019-03-12T04:25:11.315Z,13.70
2019-03-12T04:27:43.053Z,14.60
2019-03-12T04:30:16.054Z,15.53
2019-03-12T04:32:48.006Z,14.70
2019-03-12T04:35:36.443Z,15.18
2019-03-12T04:38:07.799Z,16.23
2019-03-12T04:40:39.773Z,17.40
2019-03-12T04:46:37.475Z,15.40
2019-03-12T04:49:09.097Z,17.12
2019-03-12T04:51:40.261Z,16.85
2019-03-12T04:54:12.457Z,17.23
2019-03-12T04:56:44.205Z,17.87
2019-03-12T04:59:15.511Z,18.10
2019-03-12T05:01:46.290Z,16.75
2019-03-12T05:04:18.764Z,16.45
2019-03-12T05:06:54.534Z,17.10
2019-03-12T05:09:25.700Z,18.70
2019-03-12T05:11:56.881Z,16.93
2019-03-12T05:14:29.874Z,16.05
2019-03-12T05:17:04.461Z,16.25
2019-03-12T05:19:36.683Z,17.10
2019-03-12T05:22:12.488Z,16.07
2019-03-12T05:28:10.368Z,16.97
2019-03-12T05:30:42.162Z,16.55
2019-03-12T05:33:13.608Z,16.17
2019-03-12T05:35:44.482Z,15.98
2019-03-12T05:38:15.651Z,14.73
2019-03-12T05:40:46.024Z,16.25
2019-03-12T05:43:17.929Z,17.35
2019-03-12T05:49:24.926Z,17.52
2019-03-12T05:51:55.980Z,15.90
2019-03-12T05:54:27.207Z,16.93
2019-03-12T05:56:58.771Z,16.93
2019-03-12T05:59:30.221Z,19.07
2019-03-12T06:02:01.364Z,17.77
2019-03-12T06:04:34.234Z,17.50
2019-03-12T06:07:05.976Z,18.37
2019-03-12T06:09:38.228Z,18.40
2019-03-12T06:12:09.853Z,18.27
2019-03-12T06:14:41.025Z,17.57
2019-03-12T06:17:12.483Z,17.43
2019-03-12T06:19:43.962Z,16.67
2019-03-12T06:22:16.175Z,17.87
2019-03-12T06:24:47.994Z,17.67
2019-03-12T06:27:19.925Z,17.53
2019-03-12T06:29:51.141Z,16.57
2019-03-12T06:32:28.279Z,17.77
2019-03-12T06:48:22.153Z,16.23
2019-03-12T06:51:53.253Z,16.82
2019-03-12T06:54:35.714Z,15.18
2019-03-12T06:57:08.191Z,16.35
2019-03-12T06:59:40.450Z,15.80
2019-03-12T07:02:23.879Z,15.40
2019-03-12T07:05:07.414Z,15.13
2019-03-12T07:07:45.891Z,14.60
2019-03-12T07:10:20.276Z,14.65
2019-03-12T07:12:57.752Z,13.73
2019-03-12T07:15:30.957Z,13.87
2019-03-12T07:18:06.055Z,12.20
2019-03-12T07:20:54.474Z,13.27
2019-03-12T07:23:33.687Z,13.93
2019-03-12T07:26:23.086Z,12.93
2019-03-12T07:28:59.748Z,13.28
2019-03-12T07:31:33.759Z,11.67
2019-03-12T07:34:08.175Z,12.97
2019-03-12T07:37:38.575Z,12.20
2019-03-12T07:40:27.308Z,10.93
2019-03-12T07:54:00.043Z,9.17
2019-03-12T07:57:30.855Z,7.80
2019-03-12T08:00:03.984Z,7.77
2019-03-12T08:02:54.829Z,8.57
2019-03-12T08:05:32.594Z,7.13
2019-03-12T08:08:09.859Z,8.97
2019-03-12T08:11:16.475Z,8.27
2019-03-12T08:13:50.398Z,6.87
2019-03-12T08:16:23.843Z,7.87
2019-03-12T08:19:24.853Z,7.50
2019-03-12T08:23:17.009Z,7.23
2019-03-12T08:25:53.400Z,6.23
2019-03-12T08:28:30.411Z,5.43
2019-03-12T08:31:04.662Z,6.27
2019-03-12T08:33:58.721Z,4.90
2019-03-12T08:36:46.274Z,6.00
2019-03-12T08:39:49.072Z,4.63
2019-03-12T08:42:39.335Z,4.93
2019-03-12T08:45:20.676Z,5.00
2019-03-12T08:48:05.496Z,4.70
2019-03-12T08:50:45.141Z,6.07
2019-03-12T08:53:20.615Z,4.60
2019-03-12T08:56:00.367Z,4.43
2019-03-12T08:58:34.494Z,4.63
2019-03-12T09:01:25.568Z,5.23
2019-03-12T09:04:00.875Z,4.97
2019-03-12T09:06:39.292Z,5.03
2019-03-12T09:09:19.406Z,5.57
2019-03-12T09:12:09.284Z,5.50
2019-03-12T09:14:48.292Z,5.33
2019-03-12T09:17:37.231Z,5.40
2019-03-12T09:20:12.089Z,4.83
2019-03-12T09:22:48.798Z,5.90
2019-03-12T09:25:34.099Z,4.67
2019-03-12T09:28:13.626Z,5.10
2019-03-12T09:30:50.764Z,5.20
2019-03-12T09:33:40.599Z,5.33
2019-03-12T09:36:13.592Z,5.60
2019-03-12T09:42:32.342Z,4.67
2019-03-12T09:45:08.282Z,5.00
2019-03-12T09:47:52.613Z,4.77
2019-03-12T09:50:26.084Z,4.40
2019-03-12T09:52:58.232Z,4.70
2019-03-12T09:55:39.836Z,4.43
2019-03-12T09:58:11.824Z,4.10
2019-03-12T10:00:50.533Z,4.40
2019-03-12T10:03:33.269Z,4.47
2019-03-12T10:06:06.938Z,3.63
2019-03-12T10:08:40.251Z,3.50
2019-03-12T10:11:12.235Z,3.90
2019-03-12T10:13:50.717Z,3.97
2019-03-12T10:16:23.381Z,4.00
2019-03-12T10:18:59.409Z,4.03
2019-03-12T10:21:32.325Z,4.23
2019-03-12T10:24:07.347Z,4.03
2019-03-12T10:26:40.889Z,3.83
2019-03-12T10:29:14.038Z,3.87
2019-03-12T10:32:00.321Z,3.50
2019-03-12T10:34:33.250Z,3.73
2019-03-12T10:37:16.504Z,4.00
2019-03-12T10:40:06.818Z,4.00
2019-03-12T10:42:45.299Z,3.73
2019-03-12T10:45:24.139Z,4.63
2019-03-12T10:47:56.971Z,4.17
2019-03-12T10:50:33.078Z,5.03
2019-03-12T10:56:28.994Z,4.60
2019-03-12T10:59:01.477Z,6.73
2019-03-12T11:01:33.367Z,6.77
2019-03-12T11:04:04.478Z,6.97
2019-03-12T11:06:35.961Z,9.03
2019-03-12T11:09:08.029Z,7.67
2019-03-12T11:11:39.217Z,8.07
2019-03-12T11:14:09.798Z,7.17
2019-03-12T11:16:41.254Z,7.80
2019-03-12T11:19:12.647Z,9.03
2019-03-12T11:21:46.055Z,9.50
2019-03-12T11:24:16.813Z,8.97
2019-03-12T11:26:47.799Z,9.47
2019-03-12T11:29:19.499Z,10.43
2019-03-12T11:31:51.181Z,10.00
2019-03-12T11:34:23.009Z,11.07
2019-03-12T11:36:54.527Z,9.47
2019-03-12T11:39:26.263Z,11.17
2019-03-12T11:42:03.743Z,11.93
2019-03-12T11:44:37.237Z,13.23
2019-03-12T11:47:09.006Z,13.30
2019-03-12T11:49:44.249Z,14.07
2019-03-12T11:52:17.224Z,14.03
2019-03-12T11:54:53.978Z,11.10
2019-03-12T11:57:28.417Z,12.23
2019-03-12T12:00:03.221Z,12.37
2019-03-12T12:02:37.719Z,12.97
2019-03-12T12:05:09.780Z,12.63
2019-03-12T12:07:40.376Z,13.90
2019-03-12T12:10:19.166Z,10.53
2019-03-12T12:12:56.463Z,11.00
2019-03-12T12:15:30.884Z,11.27
2019-03-12T12:18:03.207Z,11.87
2019-03-12T12:20:35.373Z,12.37
2019-03-12T12:23:10.118Z,10.73
2019-03-12T12:25:42.821Z,10.20
2019-03-12T12:28:14.627Z,11.23
2019-03-12T12:30:44.950Z,9.83
2019-03-12T12:33:17.656Z,10.20
2019-03-12T12:35:54.960Z,9.87
2019-03-12T12:38:28.411Z,8.10
2019-03-12T12:41:02.213Z,8.77
2019-03-12T12:43:35.735Z,7.83
2019-03-12T12:46:10.847Z,6.90
2019-03-12T12:48:44.307Z,6.77
2019-03-12T12:51:27.682Z,7.23
2019-03-12T12:54:00.932Z,7.80
2019-03-12T12:56:31.784Z,6.83
2019-03-12T12:59:03.106Z,7.07
2019-03-12T13:01:34.947Z,7.70
2019-03-12T13:04:06.583Z,5.67
2019-03-12T13:06:40.539Z,5.80
2019-03-12T13:09:12.853Z,6.10
2019-03-12T13:11:43.835Z,6.90
2019-03-12T13:14:14.846Z,5.97
2019-03-12T13:16:49.187Z,6.60
2019-03-12T13:19:21.865Z,6.10
2019-03-12T13:21:58.172Z,6.37
2019-03-12T13:24:31.374Z,6.53
2019-03-12T13:27:03.628Z,6.70
2019-03-12T13:29:36.339Z,6.73
2019-03-12T13:32:13.616Z,5.97
2019-03-12T13:38:44.790Z,5.77
2019-03-12T13:41:04.193Z,4.57
2019-03-12T13:43:35.866Z,4.33
2019-03-12T13:46:09.235Z,5.40
2019-03-12T13:48:41.602Z,4.30
2019-03-12T14:01:47.735Z,3.70
2019-03-12T14:04:21.438Z,3.63
2019-03-12T14:06:53.457Z,3.77
2019-03-12T14:09:25.160Z,3.43
2019-03-12T14:11:59.087Z,3.97
2019-03-12T14:14:36.420Z,3.30
2019-03-12T14:17:08.587Z,3.50
2019-03-12T14:19:44.292Z,3.40
2019-03-12T14:22:16.628Z,3.40
2019-03-12T14:24:50.699Z,3.30
2019-03-12T14:27:21.754Z,2.93
2019-03-12T14:33:42.336Z,2.83
2019-03-12T14:45:40.113Z,3.63
2019-03-12T14:48:44.238Z,3.53
2019-03-12T14:51:40.603Z,3.80
2019-03-12T14:54:14.457Z,3.60
2019-03-12T14:56:46.515Z,4.30
2019-03-12T14:59:19.307Z,5.50
2019-03-12T15:01:54.832Z,5.83
2019-03-12T15:11:21.798Z,6.33
2019-03-12T15:13:57.553Z,7.80
2019-03-12T15:16:34.388Z,6.03
2019-03-12T15:19:24.411Z,6.97
2019-03-12T15:22:11.392Z,6.23
2019-03-12T15:24:46.670Z,4.40
2019-03-12T15:33:55.527Z,3.57
2019-03-12T15:36:31.318Z,3.27
2019-03-12T15:39:05.024Z,3.53
2019-03-12T15:41:38.851Z,3.47
2019-03-12T15:44:12.481Z,3.53
2019-03-12T15:46:44.482Z,3.53
2019-03-12T15:49:23.386Z,2.70
2019-03-12T15:52:07.638Z,3.07
2019-03-12T15:54:48.663Z,3.77
2019-03-12T15:57:28.438Z,2.87
2019-03-12T16:00:04.903Z,3.10
2019-03-12T16:02:39.464Z,3.10
2019-03-12T16:05:37.139Z,3.67
2019-03-12T16:11:19.255Z,3.20
2019-03-12T16:17:04.357Z,4.97
2019-03-12T16:19:36.005Z,3.60
2019-03-12T16:22:08.095Z,3.47
2019-03-12T16:24:39.889Z,3.30
2019-03-12T16:27:10.818Z,3.40
2019-03-12T16:29:41.222Z,3.10
2019-03-12T16:32:12.619Z,3.40
2019-03-12T16:34:49.450Z,3.50
2019-03-12T16:38:01.879Z,3.63
2019-03-12T16:40:35.410Z,3.70
2019-03-12T16:46:55.640Z,2.60
2019-03-12T16:49:28.137Z,2.30
2019-03-12T16:51:59.011Z,3.17
2019-03-12T16:54:30.131Z,3.97
2019-03-12T16:57:15.338Z,2.57
2019-03-12T17:03:07.842Z,4.93
2019-03-12T17:05:39.439Z,6.53
2019-03-12T17:08:13.615Z,3.57
2019-03-12T17:10:58.269Z,11.37
2019-03-12T17:13:46.325Z,3.83
2019-03-12T17:16:18.309Z,4.53
2019-03-12T17:18:53.008Z,3.33
2019-03-12T17:21:26.856Z,3.57
2019-03-12T17:24:01.045Z,2.60
2019-03-12T17:26:32.481Z,2.80
2019-03-12T17:29:03.911Z,4.37
2019-03-12T17:31:35.199Z,2.67
2019-03-12T17:34:07.732Z,4.70
2019-03-12T17:36:39.579Z,3.27
2019-03-12T17:39:11.679Z,2.67
2019-03-12T17:41:43.208Z,3.10
2019-03-12T17:44:14.610Z,2.90
2019-03-12T17:46:45.757Z,2.70
2019-03-12T17:49:16.767Z,2.60
2019-03-12T17:55:12.341Z,2.30
2019-03-12T17:57:44.346Z,2.63
2019-03-12T18:00:28.077Z,3.10
2019-03-12T18:02:59.862Z,2.80
2019-03-12T18:05:31.337Z,2.60
2019-03-12T18:08:04.227Z,3.73
2019-03-12T18:10:37.724Z,2.50
2019-03-12T18:13:10.398Z,2.33
2019-03-12T18:15:42.240Z,3.07
2019-03-12T18:18:13.595Z,2.37
2019-03-12T18:20:44.307Z,3.00
2019-03-12T18:23:19.208Z,3.03
2019-03-12T18:25:51.619Z,3.30
2019-03-12T18:28:24.213Z,3.17
2019-03-12T18:30:56.262Z,4.67
2019-03-12T18:33:29.030Z,2.70
2019-03-12T18:36:01.375Z,3.40
2019-03-12T18:38:33.762Z,3.30
2019-03-12T18:41:05.821Z,4.17
2019-03-12T18:43:38.728Z,2.63
2019-03-12T18:46:10.163Z,3.70
2019-03-12T18:48:44.459Z,3.50
2019-03-12T18:51:17.365Z,2.90
2019-03-12T18:53:49.578Z,3.07
2019-03-12T18:56:21.170Z,3.83
2019-03-12T18:58:54.282Z,3.73
2019-03-12T19:01:26.331Z,3.20
2019-03-12T19:04:01.026Z,2.77
2019-03-12T19:06:35.845Z,4.50
2019-03-12T19:09:09.471Z,3.57
2019-03-12T19:11:43.402Z,2.50
2019-03-12T19:14:15.446Z,2.20
2019-03-12T19:16:47.799Z,2.13
2019-03-12T19:19:19.701Z,2.67
2019-03-12T19:21:51.269Z,2.47
2019-03-12T19:24:22.693Z,2.67
2019-03-12T19:26:57.611Z,6.67
2019-03-12T19:29:30.066Z,3.20
2019-03-12T19:32:02.657Z,2.57
2019-03-12T19:34:36.487Z,2.87
2019-03-12T19:37:07.574Z,2.53
2019-03-12T19:39:39.126Z,2.50
2019-03-12T19:42:11.132Z,2.40
2019-03-12T19:44:43.322Z,2.00
2019-03-12T19:47:15.154Z,2.67
2019-03-12T19:49:47.117Z,2.83
2019-03-12T19:52:18.440Z,2.67
2019-03-12T19:54:51.144Z,2.20
2019-03-12T19:57:24.595Z,2.57
2019-03-12T19:59:58.109Z,2.60
2019-03-12T20:02:31.936Z,2.17
2019-03-12T20:05:03.865Z,2.27
2019-03-12T20:07:36.012Z,2.63
2019-03-12T20:10:16.186Z,2.67
2019-03-12T20:13:12.491Z,2.60
2019-03-12T20:16:12.270Z,2.43
2019-03-12T20:19:15.235Z,2.43
2019-03-12T20:22:15.733Z,2.17
2019-03-12T20:25:22.541Z,1.90
2019-03-12T20:28:26.499Z,2.00
2019-03-12T20:31:08.912Z,1.70
2019-03-12T20:34:03.199Z,2.10
2019-03-12T20:37:04.801Z,2.77
2019-03-12T20:39:42.050Z,2.00
2019-03-12T20:42:17.580Z,2.00
2019-03-12T20:45:15.873Z,2.10
2019-03-12T20:48:09.545Z,2.30
2019-03-12T20:51:05.107Z,2.43
2019-03-12T20:53:59.180Z,3.77
2019-03-12T20:57:07.944Z,2.60
2019-03-12T21:00:07.959Z,2.53
2019-03-12T21:03:13.657Z,2.17
2019-03-12T21:06:20.591Z,1.77
2019-03-12T21:09:05.863Z,2.13
2019-03-12T21:12:08.412Z,1.80
2019-03-12T21:15:17.990Z,1.93
2019-03-12T21:18:06.045Z,2.43
2019-03-12T21:20:58.250Z,2.00
2019-03-12T21:23:45.912Z,2.27
2019-03-12T21:26:48.165Z,1.97
2019-03-12T21:29:49.134Z,2.50
2019-03-12T21:32:22.772Z,3.07
2019-03-12T21:34:58.773Z,2.50
2019-03-12T21:37:32.863Z,2.00
2019-03-12T21:40:07.905Z,3.17
2019-03-12T21:42:41.830Z,2.57
2019-03-12T21:45:15.986Z,2.40
2019-03-12T21:47:50.310Z,2.77
2019-03-12T21:50:24.374Z,2.73
2019-03-12T21:52:57.776Z,2.60
2019-03-12T21:55:30.491Z,2.67
2019-03-12T21:58:05.863Z,2.53
2019-03-12T22:00:38.324Z,2.73
2019-03-12T22:03:11.121Z,3.20
2019-03-12T22:05:42.601Z,2.77
2019-03-12T22:08:15.704Z,2.97
2019-03-12T22:10:46.859Z,2.67
2019-03-12T22:13:19.671Z,3.13
2019-03-12T22:15:53.634Z,2.90
2019-03-12T22:18:25.093Z,2.27
2019-03-12T22:20:57.500Z,2.20
2019-03-12T22:23:31.263Z,2.53
2019-03-12T22:26:04.456Z,2.40
2019-03-12T22:28:41.113Z,2.23
2019-03-12T22:31:17.876Z,2.50
2019-03-12T22:33:50.106Z,2.47
2019-03-12T22:36:23.253Z,2.63
2019-03-12T22:38:57.599Z,2.93
2019-03-12T22:41:32.037Z,2.60
2019-03-12T22:44:04.436Z,2.73
2019-03-12T22:46:35.734Z,2.47
2019-03-12T22:49:08.284Z,2.60
2019-03-12T22:51:41.741Z,2.10
2019-03-12T22:54:15.934Z,2.10
2019-03-12T22:56:46.922Z,2.50
2019-03-12T22:59:18.900Z,2.27
2019-03-12T23:01:51.845Z,2.30
2019-03-12T23:04:23.971Z,2.70
2019-03-12T23:06:55.075Z,2.63
2019-03-12T23:09:26.212Z,3.00
2019-03-12T23:11:58.890Z,2.37
2019-03-12T23:14:31.233Z,2.77
2019-03-12T23:17:03.100Z,2.60
2019-03-12T23:19:35.376Z,2.20
2019-03-12T23:22:07.705Z,2.43
2019-03-12T23:24:38.287Z,3.03
2019-03-12T23:27:10.966Z,2.40
2019-03-12T23:29:42.274Z,2.90
2019-03-12T23:32:15.294Z,2.30
2019-03-12T23:34:48.879Z,2.70
2019-03-12T23:37:19.941Z,3.10
2019-03-12T23:39:51.833Z,2.80
2019-03-12T23:42:22.752Z,3.50
2019-03-12T23:44:54.572Z,3.57
2019-03-12T23:47:27.265Z,3.83
2019-03-12T23:49:59.055Z,4.00
2019-03-12T23:52:31.668Z,3.70
2019-03-12T23:55:04.711Z,3.70
2019-03-12T23:57:36.684Z,4.07
